Time;durP1;ratioP1;P1;durP2;ratioP2;P2;SDS_P1;SDS_P2;PMS_P1;PMS_P2;Temp;Humidity;BMP_temperature;BMP_pressure;BME280_temperature;BME280_humidity;BME280_pressure;Samples;Min_cycle;Max_cycle;Signal;HPM_P1;HPM_P2
2020/12/15 00:01:59;;;;;;;15.63;8.93;;;;;;;;;;5074470;28;20098;-64
2020/12/15 00:04:28;;;;;;;15.30;8.55;;;;;;;;;;5078933;28;20040;-64
2020/12/15 00:06:54;;;;;;;15.85;9.98;;;;;;;;;;5078417;28;20059;-64
2020/12/15 00:09:21;;;;;;;14.18;8.35;;;;;;;;;;5087636;28;20614;-64
2020/12/15 00:11:47;;;;;;;15.00;9.25;;;;;;;;;;5076480;28;20536;-64
2020/12/15 00:14:13;;;;;;;13.23;8.75;;;;;;;;;;5076724;28;20031;-64
2020/12/15 00:16:39;;;;;;;15.00;8.73;;;;;;;;;;5073872;28;20020;-64
2020/12/15 00:19:05;;;;;;;14.55;9.77;;;;;;;;;;5086824;28;20020;-64
2020/12/15 00:21:31;;;;;;;12.60;8.50;;;;;;;;;;5077026;28;20028;-64
2020/12/15 00:23:57;;;;;;;14.43;8.45;;;;;;;;;;5086535;28;20081;-64
2020/12/15 00:26:24;;;;;;;14.27;9.27;;;;;;;;;;5072151;28;20052;-64
2020/12/15 00:28:50;;;;;;;11.60;7.88;;;;;;;;;;5059653;28;20048;-64
2020/12/15 00:31:19;;;;;;;15.07;8.35;;;;;;;;;;5083307;28;20042;-64
2020/12/15 00:33:46;;;;;;;17.27;10.00;;;;;;;;;;5073398;28;20503;-64
2020/12/15 00:36:21;;;;;;;15.57;9.00;;;;;;;;;;5086467;28;20046;-64
2020/12/15 00:38:47;;;;;;;16.67;9.48;;;;;;;;;;5082325;28;20650;-64
2020/12/15 00:41:13;;;;;;;14.85;9.18;;;;;;;;;;5085983;28;20032;-64
2020/12/15 00:43:39;;;;;;;16.63;9.77;;;;;;;;;;5083034;28;20712;-64
2020/12/15 00:46:05;;;;;;;13.85;8.80;;;;;;;;;;5083931;28;20031;-64
2020/12/15 00:48:31;;;;;;;16.63;9.77;;;;;;;;;;5077249;28;20464;-64
2020/12/15 00:50:57;;;;;;;14.52;8.93;;;;;;;;;;5084827;28;20039;-64
2020/12/15 00:53:23;;;;;;;20.38;10.18;;;;;;;;;;5066834;28;20024;-64
2020/12/15 00:55:48;;;;;;;17.20;9.88;;;;;;;;;;5076140;28;20085;-64
2020/12/15 00:58:14;;;;;;;14.52;9.07;;;;;;;;;;5085525;28;20028;-64
2020/12/15 01:00:40;;;;;;;15.65;10.05;;;;;;;;;;5076439;28;20035;-64
2020/12/15 01:03:06;;;;;;;15.98;10.30;;;;;;;;;;5078122;28;20045;-64
2020/12/15 01:05:32;;;;;;;14.30;9.88;;;;;;;;;;5075696;28;20621;-64
2020/12/15 01:07:58;;;;;;;16.27;9.30;;;;;;;;;;5074775;28;20035;-64
2020/12/15 01:10:24;;;;;;;22.75;11.32;;;;;;;;;;5070658;28;20042;-64
2020/12/15 01:12:50;;;;;;;16.83;10.10;;;;;;;;;;5078396;28;20820;-64
2020/12/15 01:15:16;;;;;;;18.77;11.18;;;;;;;;;;5076151;28;20484;-64
2020/12/15 01:17:42;;;;;;;16.60;10.23;;;;;;;;;;5073299;28;20024;-64
2020/12/15 01:20:08;;;;;;;18.63;11.70;;;;;;;;;;5079752;28;20027;-64
2020/12/15 01:22:34;;;;;;;16.67;10.05;;;;;;;;;;5075636;28;20024;-64
2020/12/15 01:25:00;;;;;;;18.25;11.45;;;;;;;;;;5069668;28;20024;-64
2020/12/15 01:27:26;;;;;;;17.42;10.80;;;;;;;;;;5069180;28;20036;-64
2020/12/15 01:29:52;;;;;;;20.13;11.80;;;;;;;;;;5082467;28;20036;-64
2020/12/15 01:32:18;;;;;;;17.42;11.13;;;;;;;;;;5067707;28;20033;-64
2020/12/15 01:34:44;;;;;;;17.20;10.85;;;;;;;;;;5073223;28;20028;-64
2020/12/15 01:37:09;;;;;;;18.20;11.55;;;;;;;;;;5062909;28;20021;-64
2020/12/15 01:39:35;;;;;;;18.80;10.95;;;;;;;;;;5060168;28;20028;-64
2020/12/15 01:42:01;;;;;;;19.13;11.98;;;;;;;;;;5079223;28;20518;-64
2020/12/15 01:44:27;;;;;;;19.05;11.80;;;;;;;;;;5073048;28;20141;-64
2020/12/15 01:46:53;;;;;;;16.70;10.65;;;;;;;;;;5085459;28;20115;-64
2020/12/15 01:49:19;;;;;;;19.02;11.57;;;;;;;;;;5074420;28;20044;-64
2020/12/15 01:51:46;;;;;;;18.83;12.07;;;;;;;;;;5057845;28;20508;-64
2020/12/15 01:54:12;;;;;;;18.90;11.27;;;;;;;;;;5078736;28;20040;-64
2020/12/15 01:56:38;;;;;;;17.17;11.05;;;;;;;;;;5070111;28;20373;-64
2020/12/15 01:59:04;;;;;;;19.58;11.48;;;;;;;;;;5082784;28;20024;-64
2020/12/15 02:01:30;;;;;;;16.75;10.02;;;;;;;;;;5078700;28;20508;-64
2020/12/15 02:03:56;;;;;;;17.02;10.60;;;;;;;;;;5074734;28;20059;-64
2020/12/15 02:06:23;;;;;;;17.48;10.98;;;;;;;;;;5077287;28;20020;-64
2020/12/15 02:08:49;;;;;;;16.52;10.95;;;;;;;;;;5074513;28;20036;-64
2020/12/15 02:11:15;;;;;;;14.77;9.95;;;;;;;;;;5079705;28;20034;-64
2020/12/15 02:13:41;;;;;;;17.77;10.73;;;;;;;;;;5078764;28;20028;-64
2020/12/15 02:16:11;;;;;;;17.40;11.65;;;;;;;;;;5085964;28;20362;-64
2020/12/15 02:18:38;;;;;;;18.90;10.95;;;;;;;;;;5082573;28;20456;-64
2020/12/15 02:21:08;;;;;;;19.27;10.93;;;;;;;;;;5071400;28;20107;-64
2020/12/15 02:23:34;;;;;;;18.42;11.35;;;;;;;;;;5062711;28;20044;-64
2020/12/15 02:26:04;;;;;;;17.40;10.15;;;;;;;;;;5069968;28;20029;-64
2020/12/15 02:28:30;;;;;;;19.58;11.40;;;;;;;;;;5072706;28;20034;-64
2020/12/15 02:30:56;;;;;;;18.17;11.07;;;;;;;;;;5086489;28;20024;-64
2020/12/15 02:33:22;;;;;;;17.27;10.77;;;;;;;;;;5074508;28;20099;-64
2020/12/15 02:35:47;;;;;;;17.50;10.40;;;;;;;;;;5069704;28;20035;-64
2020/12/15 02:38:13;;;;;;;18.13;10.95;;;;;;;;;;5077426;28;20438;-64
2020/12/15 02:40:39;;;;;;;15.93;10.60;;;;;;;;;;5076011;28;20604;-64
2020/12/15 02:43:05;;;;;;;18.42;11.48;;;;;;;;;;5070791;28;20028;-64
2020/12/15 02:45:31;;;;;;;16.90;10.88;;;;;;;;;;5057412;28;20082;-64
2020/12/15 02:47:57;;;;;;;18.30;11.43;;;;;;;;;;5063356;28;20078;-64
2020/12/15 02:50:24;;;;;;;18.08;10.93;;;;;;;;;;5065930;28;20049;-64
2020/12/15 02:52:50;;;;;;;15.52;10.18;;;;;;;;;;5064057;28;20731;-64
2020/12/15 02:55:16;;;;;;;19.60;11.70;;;;;;;;;;5073371;28;20113;-64
2020/12/15 02:57:42;;;;;;;17.80;11.25;;;;;;;;;;5076232;28;20031;-64
2020/12/15 03:00:09;;;;;;;18.25;11.27;;;;;;;;;;5054110;28;20463;-64
2020/12/15 03:02:35;;;;;;;17.52;11.50;;;;;;;;;;5084533;28;20044;-64
2020/12/15 03:05:01;;;;;;;18.65;11.70;;;;;;;;;;5080338;28;20024;-64
2020/12/15 03:07:27;;;;;;;21.30;12.05;;;;;;;;;;5076953;28;20028;-64
2020/12/15 03:09:53;;;;;;;19.15;11.65;;;;;;;;;;5074144;28;20651;-64
2020/12/15 03:12:20;;;;;;;16.90;10.43;;;;;;;;;;5079990;28;20038;-64
2020/12/15 03:14:47;;;;;;;18.67;10.55;;;;;;;;;;5075003;28;20103;-64
2020/12/15 03:17:13;;;;;;;19.17;11.23;;;;;;;;;;5076988;28;20024;-64
2020/12/15 03:19:39;;;;;;;15.55;10.52;;;;;;;;;;5071590;28;20544;-64
2020/12/15 03:22:05;;;;;;;18.90;10.77;;;;;;;;;;5084996;28;20051;-64
2020/12/15 03:24:31;;;;;;;16.05;9.95;;;;;;;;;;5069387;28;20024;-64
2020/12/15 03:26:57;;;;;;;16.23;10.52;;;;;;;;;;5063957;28;20479;-64
2020/12/15 03:29:23;;;;;;;18.20;10.93;;;;;;;;;;5082107;28;20056;-64
2020/12/15 03:31:49;;;;;;;18.27;11.35;;;;;;;;;;5081477;28;20435;-64
2020/12/15 03:34:15;;;;;;;20.70;11.70;;;;;;;;;;5080381;28;20431;-64
2020/12/15 03:36:41;;;;;;;18.65;11.30;;;;;;;;;;5069058;28;20043;-64
2020/12/15 03:39:07;;;;;;;17.02;10.38;;;;;;;;;;5077649;28;20123;-64
2020/12/15 03:41:34;;;;;;;19.48;11.60;;;;;;;;;;5085670;28;20055;-64
2020/12/15 03:44:00;;;;;;;20.20;11.90;;;;;;;;;;5082030;28;20050;-64
2020/12/15 03:46:26;;;;;;;18.05;11.32;;;;;;;;;;5076292;28;20777;-64
2020/12/15 03:48:52;;;;;;;18.17;11.35;;;;;;;;;;5071630;28;20557;-64
2020/12/15 03:51:18;;;;;;;16.33;11.02;;;;;;;;;;5066977;28;20021;-64
2020/12/15 03:53:44;;;;;;;22.88;11.25;;;;;;;;;;5084510;28;20020;-64
2020/12/15 03:56:11;;;;;;;19.42;11.57;;;;;;;;;;5075408;28;20132;-64
2020/12/15 03:58:37;;;;;;;17.88;11.43;;;;;;;;;;5073029;28;20037;-64
2020/12/15 04:01:03;;;;;;;20.40;11.75;;;;;;;;;;5061374;28;20019;-64
2020/12/15 04:03:29;;;;;;;20.85;12.45;;;;;;;;;;5084858;28;20139;-64
2020/12/15 04:05:55;;;;;;;18.73;11.85;;;;;;;;;;5078778;28;20029;-64
2020/12/15 04:08:21;;;;;;;19.85;11.57;;;;;;;;;;5084004;28;20119;-64
2020/12/15 04:10:49;;;;;;;19.38;11.95;;;;;;;;;;5078101;28;20069;-64
2020/12/15 04:13:15;;;;;;;19.98;11.32;;;;;;;;;;5085762;28;20093;-64
2020/12/15 04:15:41;;;;;;;19.38;11.63;;;;;;;;;;5084294;28;20646;-64
2020/12/15 04:18:07;;;;;;;19.20;11.57;;;;;;;;;;5071097;28;20036;-64
2020/12/15 04:20:33;;;;;;;18.95;11.50;;;;;;;;;;5077387;28;20020;-64
2020/12/15 04:22:59;;;;;;;22.60;13.40;;;;;;;;;;5086973;28;20078;-64
2020/12/15 04:25:25;;;;;;;21.52;13.15;;;;;;;;;;5077904;28;20031;-64
2020/12/15 04:27:51;;;;;;;24.17;13.05;;;;;;;;;;5071497;28;20023;-64
2020/12/15 04:30:17;;;;;;;22.92;13.05;;;;;;;;;;5077460;28;20028;-64
2020/12/15 04:32:43;;;;;;;19.42;12.05;;;;;;;;;;5075386;28;20046;-64
2020/12/15 04:35:09;;;;;;;22.67;12.93;;;;;;;;;;5077584;28;20574;-64
2020/12/15 04:37:35;;;;;;;22.98;12.68;;;;;;;;;;5082556;28;20528;-64
2020/12/15 04:40:01;;;;;;;18.52;11.23;;;;;;;;;;5066423;28;20249;-64
2020/12/15 04:42:27;;;;;;;24.60;14.38;;;;;;;;;;5084377;28;20016;-64
2020/12/15 04:44:54;;;;;;;22.05;13.68;;;;;;;;;;5080947;28;20032;-64
2020/12/15 04:47:24;;;;;;;23.80;13.18;;;;;;;;;;5081738;28;20028;-64
2020/12/15 04:50:00;;;;;;;23.15;12.98;;;;;;;;;;5084091;28;20028;-64
2020/12/15 04:52:46;;;;;;;21.65;13.98;;;;;;;;;;5075192;28;20051;-64
2020/12/15 04:55:13;;;;;;;25.33;14.43;;;;;;;;;;5067938;28;20040;-64
2020/12/15 04:57:40;;;;;;;20.23;12.93;;;;;;;;;;5086151;28;20383;-64
2020/12/15 05:00:09;;;;;;;25.38;13.85;;;;;;;;;;5075290;28;20035;-64
2020/12/15 05:02:42;;;;;;;23.70;13.63;;;;;;;;;;5071332;28;20048;-64
2020/12/15 05:05:08;;;;;;;22.70;15.10;;;;;;;;;;5072224;28;20020;-64
2020/12/15 05:07:39;;;;;;;22.55;12.85;;;;;;;;;;5082477;28;20042;-64
2020/12/15 05:10:05;;;;;;;25.40;13.70;;;;;;;;;;5058491;28;20024;-64
2020/12/15 05:12:31;;;;;;;25.58;14.93;;;;;;;;;;5069482;28;20037;-64
2020/12/15 05:14:57;;;;;;;30.33;16.30;;;;;;;;;;5086215;28;20028;-64
2020/12/15 05:17:24;;;;;;;29.27;15.93;;;;;;;;;;5085620;28;20020;-64
2020/12/15 05:19:50;;;;;;;27.30;15.20;;;;;;;;;;5079802;28;20027;-64
2020/12/15 05:22:16;;;;;;;25.45;15.05;;;;;;;;;;5068837;28;20522;-64
2020/12/15 05:24:46;;;;;;;23.70;14.07;;;;;;;;;;5074840;28;20399;-64
2020/12/15 05:27:15;;;;;;;25.73;15.50;;;;;;;;;;5063982;28;20641;-64
2020/12/15 05:29:41;;;;;;;28.10;15.68;;;;;;;;;;5054120;28;20107;-64
2020/12/15 05:32:08;;;;;;;28.00;15.45;;;;;;;;;;5070750;28;20094;-64
2020/12/15 05:34:34;;;;;;;27.08;15.77;;;;;;;;;;5080265;28;20035;-64
2020/12/15 05:37:01;;;;;;;24.58;14.93;;;;;;;;;;5070447;28;20067;-64
2020/12/15 05:39:28;;;;;;;29.50;16.98;;;;;;;;;;5085555;28;20111;-64
2020/12/15 05:42:04;;;;;;;28.58;16.08;;;;;;;;;;5077851;28;20082;-64
2020/12/15 05:44:31;;;;;;;28.63;16.15;;;;;;;;;;5070337;28;20170;-64
2020/12/15 05:47:04;;;;;;;28.88;16.10;;;;;;;;;;5056827;28;20067;-64
2020/12/15 05:49:30;;;;;;;;;;;;;;;;;;5080815;28;20032;-64
2020/12/15 05:51:56;;;;;;;29.17;15.50;;;;;;;;;;5079350;28;20405;-64
2020/12/15 05:54:23;;;;;;;29.95;17.45;;;;;;;;;;5074252;28;20089;-64
2020/12/15 05:56:59;;;;;;;30.38;16.52;;;;;;;;;;5077846;28;20369;-64
2020/12/15 05:59:25;;;;;;;27.73;16.38;;;;;;;;;;5070006;28;20028;-64
2020/12/15 06:01:53;;;;;;;30.80;16.92;;;;;;;;;;5086882;28;20208;-64
2020/12/15 06:04:20;;;;;;;30.05;17.73;;;;;;;;;;5067135;28;20047;-64
2020/12/15 06:06:46;;;;;;;28.20;17.58;;;;;;;;;;5064294;28;20025;-64
2020/12/15 06:09:17;;;;;;;27.67;16.25;;;;;;;;;;5077675;28;20522;-64
2020/12/15 06:11:44;;;;;;;33.97;18.65;;;;;;;;;;5078479;28;20161;-64
2020/12/15 06:14:10;;;;;;;34.58;20.40;;;;;;;;;;5073907;28;20091;-64
2020/12/15 06:16:38;;;;;;;46.70;25.52;;;;;;;;;;5074125;28;20038;-64
2020/12/15 06:19:08;;;;;;;33.42;17.98;;;;;;;;;;5081928;28;20433;-64
2020/12/15 06:21:34;;;;;;;31.73;18.40;;;;;;;;;;5075713;28;20031;-64
2020/12/15 06:24:07;;;;;;;27.83;17.45;;;;;;;;;;5066816;28;20367;-64
2020/12/15 06:26:34;;;;;;;27.83;16.63;;;;;;;;;;5067732;28;20476;-64
2020/12/15 06:29:07;;;;;;;31.35;18.13;;;;;;;;;;5083846;28;20555;-64
2020/12/15 06:31:33;;;;;;;33.13;18.00;;;;;;;;;;5086233;28;20025;-64
2020/12/15 06:34:03;;;;;;;31.98;17.85;;;;;;;;;;5082661;28;20800;-64
2020/12/15 06:36:32;;;;;;;31.80;17.83;;;;;;;;;;5080277;28;20043;-64
2020/12/15 06:38:59;;;;;;;34.28;18.52;;;;;;;;;;5086259;28;20034;-64
2020/12/15 06:41:26;;;;;;;30.98;17.90;;;;;;;;;;5086535;28;20081;-64
2020/12/15 06:43:53;;;;;;;33.88;19.42;;;;;;;;;;5086143;28;20491;-64
2020/12/15 06:46:27;;;;;;;36.10;19.10;;;;;;;;;;5085545;28;20137;-64
2020/12/15 06:48:53;;;;;;;33.25;19.13;;;;;;;;;;5072128;28;20033;-64
2020/12/15 06:51:32;;;;;;;32.95;18.75;;;;;;;;;;5082266;28;20027;-64
2020/12/15 06:54:03;;;;;;;38.28;20.50;;;;;;;;;;5083837;28;20028;-64
2020/12/15 06:56:29;;;;;;;31.95;18.33;;;;;;;;;;5084370;28;20127;-64
2020/12/15 06:59:01;;;;;;;29.77;17.13;;;;;;;;;;5085117;28;20099;-64
2020/12/15 07:01:29;;;;;;;31.75;18.60;;;;;;;;;;5079295;28;20367;-64
2020/12/15 07:03:55;;;;;;;33.45;18.67;;;;;;;;;;5066310;28;20048;-64
2020/12/15 07:06:21;;;;;;;32.08;18.75;;;;;;;;;;5075601;28;20024;-64
2020/12/15 07:08:57;;;;;;;33.42;18.25;;;;;;;;;;5084808;28;20020;-64
2020/12/15 07:11:24;;;;;;;37.83;19.45;;;;;;;;;;5086264;28;20110;-64
2020/12/15 07:14:00;;;;;;;33.70;18.85;;;;;;;;;;5084615;28;20028;-64
2020/12/15 07:16:26;;;;;;;37.15;20.48;;;;;;;;;;5083780;28;20485;-64
2020/12/15 07:18:52;;;;;;;36.58;19.48;;;;;;;;;;5084994;28;20029;-64
2020/12/15 07:21:19;;;;;;;34.00;19.10;;;;;;;;;;5084890;28;20020;-64
2020/12/15 07:23:48;;;;;;;36.10;17.90;;;;;;;;;;5074047;28;20024;-64
2020/12/15 07:26:15;;;;;;;36.25;19.17;;;;;;;;;;5082943;28;20032;-64
2020/12/15 07:28:43;;;;;;;37.53;20.15;;;;;;;;;;5088933;28;20025;-64
2020/12/15 07:31:09;;;;;;;35.67;18.73;;;;;;;;;;5067461;28;20570;-64
2020/12/15 07:33:35;;;;;;;35.17;18.70;;;;;;;;;;5065523;28;20048;-64
2020/12/15 07:36:10;;;;;;;34.53;19.10;;;;;;;;;;5079339;28;20025;-64
2020/12/15 07:38:37;;;;;;;36.97;19.08;;;;;;;;;;5063651;28;20523;-64
2020/12/15 07:41:03;;;;;;;34.67;19.05;;;;;;;;;;5076640;28;20021;-64
2020/12/15 07:43:30;;;;;;;32.58;18.60;;;;;;;;;;5076828;28;20374;-64
2020/12/15 07:45:56;;;;;;;34.08;18.48;;;;;;;;;;5089495;28;20073;-64
2020/12/15 07:48:24;;;;;;;35.70;19.10;;;;;;;;;;5066172;28;20021;-64
2020/12/15 07:50:50;;;;;;;30.27;17.77;;;;;;;;;;5075802;28;20032;-64
2020/12/15 07:53:16;;;;;;;31.90;17.40;;;;;;;;;;5078163;28;20028;-64
2020/12/15 07:55:42;;;;;;;30.92;18.55;;;;;;;;;;5088992;28;20139;-64
2020/12/15 07:58:15;;;;;;;31.85;18.63;;;;;;;;;;5083399;28;20114;-64
2020/12/15 08:00:41;;;;;;;32.08;18.23;;;;;;;;;;5077123;28;20024;-64
2020/12/15 08:03:07;;;;;;;35.53;19.13;;;;;;;;;;5076149;28;20044;-64
2020/12/15 08:05:33;;;;;;;31.60;18.58;;;;;;;;;;5076256;28;20020;-64
2020/12/15 08:08:03;;;;;;;31.52;17.00;;;;;;;;;;5084504;28;20024;-64
2020/12/15 08:10:31;;;;;;;31.17;17.58;;;;;;;;;;5086977;28;20120;-64
2020/12/15 08:12:57;;;;;;;34.70;18.63;;;;;;;;;;5074365;28;20168;-64
2020/12/15 08:15:24;;;;;;;32.63;18.52;;;;;;;;;;5074792;28;20042;-64
2020/12/15 08:17:50;;;;;;;32.65;17.10;;;;;;;;;;5079456;28;20032;-64
2020/12/15 08:20:18;;;;;;;26.63;16.25;;;;;;;;;;5086550;28;20030;-64
2020/12/15 08:22:45;;;;;;;32.35;18.08;;;;;;;;;;5070559;28;20058;-64
2020/12/15 08:25:12;;;;;;;29.92;17.38;;;;;;;;;;5088454;28;20796;-64
2020/12/15 08:27:38;;;;;;;27.75;17.20;;;;;;;;;;5075458;28;20039;-64
2020/12/15 08:30:20;;;;;;;30.15;16.75;;;;;;;;;;5086642;28;20027;-64
2020/12/15 08:32:47;;;;;;;30.90;16.73;;;;;;;;;;5080646;28;20033;-64
2020/12/15 08:35:14;;;;;;;31.60;17.38;;;;;;;;;;5081056;28;20448;-64
2020/12/15 08:37:43;;;;;;;30.63;17.17;;;;;;;;;;5080692;28;21002;-64
2020/12/15 08:40:10;;;;;;;30.60;17.77;;;;;;;;;;5069207;28;20033;-64
2020/12/15 08:42:39;;;;;;;29.25;16.70;;;;;;;;;;5072469;28;20667;-64
2020/12/15 08:45:12;;;;;;;27.73;16.23;;;;;;;;;;5065548;28;20360;-64
2020/12/15 08:47:42;;;;;;;29.95;16.65;;;;;;;;;;5085472;28;20031;-64
2020/12/15 08:50:12;;;;;;;34.58;16.65;;;;;;;;;;5067318;28;20036;-64
2020/12/15 08:52:38;;;;;;;28.23;16.00;;;;;;;;;;5065477;28;20028;-64
2020/12/15 08:55:04;;;;;;;25.70;15.43;;;;;;;;;;5066896;28;20032;-64
2020/12/15 08:57:30;;;;;;;29.65;16.35;;;;;;;;;;5075115;28;20112;-64
2020/12/15 08:59:56;;;;;;;24.00;14.68;;;;;;;;;;5080601;28;20024;-64
2020/12/15 09:02:23;;;;;;;28.95;15.35;;;;;;;;;;5084068;28;20055;-64
2020/12/15 09:04:49;;;;;;;27.20;15.07;;;;;;;;;;5076310;28;20028;-64
2020/12/15 09:07:19;;;;;;;28.58;14.27;;;;;;;;;;5058952;28;20660;-64
2020/12/15 09:09:45;;;;;;;30.55;15.98;;;;;;;;;;5063906;28;20040;-64
2020/12/15 09:12:12;;;;;;;29.65;15.95;;;;;;;;;;5070626;28;20020;-64
2020/12/15 09:14:38;;;;;;;25.92;14.90;;;;;;;;;;5076863;28;20368;-64
2020/12/15 09:17:04;;;;;;;24.85;15.02;;;;;;;;;;5082162;28;20426;-64
2020/12/15 09:19:30;;;;;;;24.83;14.43;;;;;;;;;;5061548;28;20039;-64
2020/12/15 09:22:00;;;;;;;23.67;14.20;;;;;;;;;;5066953;28;20457;-64
2020/12/15 09:24:27;;;;;;;23.63;13.43;;;;;;;;;;5066679;28;20029;-64
2020/12/15 09:26:53;;;;;;;24.30;14.23;;;;;;;;;;5076799;28;20031;-64
2020/12/15 09:29:19;;;;;;;23.98;13.60;;;;;;;;;;5072204;28;20036;-64
2020/12/15 09:31:52;;;;;;;22.92;14.02;;;;;;;;;;5074779;28;20456;-64
2020/12/15 09:34:19;;;;;;;20.80;12.88;;;;;;;;;;5066255;28;20157;-64
2020/12/15 09:36:56;;;;;;;21.15;13.23;;;;;;;;;;5064470;28;20040;-64
2020/12/15 09:39:21;;;;;;;21.67;12.82;;;;;;;;;;5082742;28;20131;-64
2020/12/15 09:41:47;;;;;;;21.25;12.70;;;;;;;;;;5077482;28;20026;-64
2020/12/15 09:44:13;;;;;;;21.65;12.35;;;;;;;;;;5056386;28;20017;-64
2020/12/15 09:46:39;;;;;;;21.65;12.15;;;;;;;;;;5058973;28;20021;-64
2020/12/15 09:49:05;;;;;;;22.98;13.32;;;;;;;;;;5066100;28;20034;-64
2020/12/15 09:51:31;;;;;;;23.63;13.30;;;;;;;;;;5079597;28;20430;-64
2020/12/15 09:53:57;;;;;;;21.35;12.60;;;;;;;;;;5071671;28;20020;-64
2020/12/15 09:56:23;;;;;;;17.40;10.70;;;;;;;;;;5060511;28;20020;-64
2020/12/15 09:58:49;;;;;;;18.88;11.23;;;;;;;;;;5053790;28;20024;-64
2020/12/15 10:01:15;;;;;;;19.65;11.65;;;;;;;;;;5063532;28;20028;-64
2020/12/15 10:03:41;;;;;;;20.02;11.55;;;;;;;;;;5063834;28;20046;-64
2020/12/15 10:06:07;;;;;;;19.52;11.25;;;;;;;;;;5060675;28;20082;-64
2020/12/15 10:08:33;;;;;;;18.20;11.20;;;;;;;;;;5072156;28;20416;-64
2020/12/15 10:10:59;;;;;;;18.52;10.85;;;;;;;;;;5067207;28;20496;-64
2020/12/15 10:13:25;;;;;;;19.08;10.82;;;;;;;;;;5060788;28;20478;-64
2020/12/15 10:15:51;;;;;;;18.35;11.25;;;;;;;;;;5068512;28;20043;-64
2020/12/15 10:18:17;;;;;;;18.88;10.85;;;;;;;;;;5068136;28;20394;-64
2020/12/15 10:20:43;;;;;;;19.10;11.10;;;;;;;;;;5076947;28;20036;-64
2020/12/15 10:23:09;;;;;;;18.23;10.73;;;;;;;;;;5078139;28;20031;-64
2020/12/15 10:25:35;;;;;;;19.80;11.25;;;;;;;;;;5078052;28;20498;-64
2020/12/15 10:28:01;;;;;;;20.48;12.02;;;;;;;;;;5068865;28;20040;-64
2020/12/15 10:30:27;;;;;;;21.38;11.63;;;;;;;;;;5086268;28;20077;-64
2020/12/15 10:32:53;;;;;;;19.08;10.63;;;;;;;;;;5069929;28;20032;-64
2020/12/15 10:35:19;;;;;;;19.35;10.93;;;;;;;;;;5065411;28;20519;-64
2020/12/15 10:37:45;;;;;;;23.27;12.45;;;;;;;;;;5081603;28;20036;-64
2020/12/15 10:40:11;;;;;;;20.65;12.57;;;;;;;;;;5086472;28;20020;-64
2020/12/15 10:42:37;;;;;;;19.70;11.38;;;;;;;;;;5080189;28;20490;-64
2020/12/15 10:45:04;;;;;;;19.27;11.15;;;;;;;;;;5069078;28;20028;-64
2020/12/15 10:47:30;;;;;;;20.20;11.50;;;;;;;;;;5060121;28;20545;-64
2020/12/15 10:49:56;;;;;;;18.52;10.80;;;;;;;;;;5063365;28;20491;-64
2020/12/15 10:52:22;;;;;;;20.85;11.05;;;;;;;;;;5071026;28;20503;-64
2020/12/15 10:54:48;;;;;;;16.85;10.70;;;;;;;;;;5079481;28;20036;-64
2020/12/15 10:57:14;;;;;;;20.38;10.88;;;;;;;;;;5074773;28;20741;-64
2020/12/15 10:59:40;;;;;;;19.50;11.43;;;;;;;;;;5074683;28;20016;-64
2020/12/15 11:02:06;;;;;;;14.50;9.15;;;;;;;;;;5086646;28;20035;-64
2020/12/15 11:04:32;;;;;;;18.73;10.93;;;;;;;;;;5054655;28;20076;-64
2020/12/15 11:06:58;;;;;;;18.38;10.95;;;;;;;;;;5083437;28;20126;-64
2020/12/15 11:09:24;;;;;;;18.63;10.48;;;;;;;;;;5070107;28;20636;-64
2020/12/15 11:11:50;;;;;;;20.20;11.18;;;;;;;;;;5080700;28;20541;-64
2020/12/15 11:14:16;;;;;;;16.80;10.20;;;;;;;;;;5081045;28;20035;-64
2020/12/15 11:16:42;;;;;;;19.45;10.85;;;;;;;;;;5070280;28;20032;-64
2020/12/15 11:19:08;;;;;;;20.67;10.20;;;;;;;;;;5084604;28;20728;-64
2020/12/15 11:21:34;;;;;;;20.35;10.95;;;;;;;;;;5079581;28;20027;-64
2020/12/15 11:24:00;;;;;;;21.45;11.65;;;;;;;;;;5069822;28;20032;-64
2020/12/15 11:26:26;;;;;;;19.48;11.10;;;;;;;;;;5064959;28;20033;-64
2020/12/15 11:28:52;;;;;;;17.48;10.65;;;;;;;;;;5072070;28;20016;-64
2020/12/15 11:31:18;;;;;;;19.33;11.18;;;;;;;;;;5067943;28;20035;-64
2020/12/15 11:33:45;;;;;;;19.88;10.82;;;;;;;;;;5071764;28;20030;-64
2020/12/15 11:36:11;;;;;;;16.30;10.48;;;;;;;;;;5072023;28;20046;-64
2020/12/15 11:38:39;;;;;;;18.83;10.27;;;;;;;;;;5068343;28;20013;-64
2020/12/15 11:41:06;;;;;;;17.92;10.35;;;;;;;;;;5064356;28;20036;-64
2020/12/15 11:43:32;;;;;;;18.95;10.75;;;;;;;;;;5089523;28;20277;-64
2020/12/15 11:45:58;;;;;;;20.50;11.10;;;;;;;;;;5079218;28;20020;-64
2020/12/15 11:48:24;;;;;;;16.50;10.65;;;;;;;;;;5087833;28;20086;-64
2020/12/15 11:50:50;;;;;;;18.02;10.52;;;;;;;;;;5089063;28;20024;-64
2020/12/15 11:53:16;;;;;;;16.90;10.18;;;;;;;;;;5080221;28;20439;-64
2020/12/15 11:55:42;;;;;;;17.52;10.15;;;;;;;;;;5088073;28;20040;-64
2020/12/15 11:58:07;;;;;;;17.25;11.25;;;;;;;;;;5077442;28;20353;-64
2020/12/15 12:00:33;;;;;;;18.55;10.60;;;;;;;;;;5083963;28;20073;-64
2020/12/15 12:02:59;;;;;;;18.55;10.18;;;;;;;;;;5087512;28;20048;-64
2020/12/15 12:05:25;;;;;;;17.85;10.85;;;;;;;;;;5076266;28;20024;-64
2020/12/15 12:07:51;;;;;;;17.75;10.30;;;;;;;;;;5087380;28;20036;-64
2020/12/15 12:10:17;;;;;;;16.30;10.00;;;;;;;;;;5072100;28;20636;-64
2020/12/15 12:12:43;;;;;;;17.63;10.48;;;;;;;;;;5069790;28;20433;-65
2020/12/15 12:15:09;;;;;;;22.52;11.63;;;;;;;;;;5089625;28;20023;-64
2020/12/15 12:17:35;;;;;;;16.88;9.63;;;;;;;;;;5087104;28;20119;-64
2020/12/15 12:20:01;;;;;;;16.10;9.18;;;;;;;;;;5089024;28;20028;-64
2020/12/15 12:22:28;;;;;;;17.67;10.10;;;;;;;;;;5078446;28;20028;-64
2020/12/15 12:24:54;;;;;;;17.35;10.77;;;;;;;;;;5088245;28;20023;-64
2020/12/15 12:27:20;;;;;;;20.60;10.73;;;;;;;;;;5083839;28;20630;-64
2020/12/15 12:29:46;;;;;;;18.98;10.75;;;;;;;;;;5074441;28;20032;-64
2020/12/15 12:32:11;;;;;;;17.90;9.95;;;;;;;;;;5086693;28;20039;-64
2020/12/15 12:34:37;;;;;;;19.70;10.73;;;;;;;;;;5085271;28;20027;-64
2020/12/15 12:37:04;;;;;;;17.27;9.88;;;;;;;;;;5086407;28;20032;-64
2020/12/15 12:39:35;;;;;;;20.88;11.80;;;;;;;;;;5088555;28;20020;-64
2020/12/15 12:42:01;;;;;;;18.95;9.48;;;;;;;;;;5088616;28;20028;-64
2020/12/15 12:44:27;;;;;;;17.25;9.77;;;;;;;;;;5070603;28;20029;-64
2020/12/15 12:46:53;;;;;;;17.42;9.82;;;;;;;;;;5066016;28;20016;-64
2020/12/15 12:49:19;;;;;;;19.67;9.63;;;;;;;;;;5064543;28;20067;-64
2020/12/15 12:51:46;;;;;;;16.80;9.70;;;;;;;;;;5078331;28;20556;-64
2020/12/15 12:54:12;;;;;;;19.00;9.52;;;;;;;;;;5088258;28;20028;-64
2020/12/15 12:56:41;;;;;;;13.27;8.45;;;;;;;;;;5058993;28;20078;-64
2020/12/15 12:59:07;;;;;;;16.77;9.57;;;;;;;;;;5068051;28;20024;-64
2020/12/15 13:01:33;;;;;;;17.67;9.45;;;;;;;;;;5066646;28;20126;-64
2020/12/15 13:03:59;;;;;;;17.00;9.88;;;;;;;;;;5063026;28;20040;-64
2020/12/15 13:06:25;;;;;;;20.17;10.27;;;;;;;;;;5062007;28;20024;-64
2020/12/15 13:08:51;;;;;;;15.15;9.32;;;;;;;;;;5063921;28;20032;-64
2020/12/15 13:11:17;;;;;;;16.70;8.70;;;;;;;;;;5078420;28;20027;-64
2020/12/15 13:13:43;;;;;;;19.35;9.00;;;;;;;;;;5075398;28;20033;-64
2020/12/15 13:16:09;;;;;;;16.90;9.02;;;;;;;;;;5069889;28;20043;-64
2020/12/15 13:18:35;;;;;;;17.15;9.20;;;;;;;;;;5065260;28;20036;-65
2020/12/15 13:21:01;;;;;;;17.88;10.07;;;;;;;;;;5075702;28;20472;-64
2020/12/15 13:23:27;;;;;;;17.38;10.13;;;;;;;;;;5082726;28;20036;-64
2020/12/15 13:25:53;;;;;;;14.45;9.27;;;;;;;;;;5086156;28;20020;-64
2020/12/15 13:28:19;;;;;;;16.05;10.10;;;;;;;;;;5087397;28;20032;-64
2020/12/15 13:30:45;;;;;;;15.05;9.52;;;;;;;;;;5066906;28;20028;-64
2020/12/15 13:33:11;;;;;;;19.15;10.55;;;;;;;;;;5061975;28;20051;-64
2020/12/15 13:35:37;;;;;;;18.10;8.73;;;;;;;;;;5082213;28;20032;-64
2020/12/15 13:38:03;;;;;;;18.67;9.63;;;;;;;;;;5070591;28;20036;-64
2020/12/15 13:40:29;;;;;;;16.00;9.50;;;;;;;;;;5086435;28;20077;-64
2020/12/15 13:42:55;;;;;;;16.52;9.88;;;;;;;;;;5087259;28;20035;-64
2020/12/15 13:45:21;;;;;;;15.73;9.40;;;;;;;;;;5072706;28;20034;-64
2020/12/15 13:47:47;;;;;;;16.98;9.85;;;;;;;;;;5084030;28;20016;-64
2020/12/15 13:50:13;;;;;;;18.80;9.75;;;;;;;;;;5084465;28;20020;-64
2020/12/15 13:52:39;;;;;;;17.02;10.10;;;;;;;;;;5078383;28;20025;-64
2020/12/15 13:55:05;;;;;;;15.88;9.90;;;;;;;;;;5073288;28;20097;-64
2020/12/15 13:57:31;;;;;;;14.88;9.20;;;;;;;;;;5068838;28;20337;-64
2020/12/15 13:59:58;;;;;;;16.20;9.52;;;;;;;;;;5076672;28;20035;-64
2020/12/15 14:02:24;;;;;;;16.42;9.95;;;;;;;;;;5083345;28;20030;-64
2020/12/15 14:04:50;;;;;;;16.67;10.07;;;;;;;;;;5073326;28;20107;-64
2020/12/15 14:07:15;;;;;;;16.15;10.32;;;;;;;;;;5086726;28;20035;-64
2020/12/15 14:09:41;;;;;;;19.50;11.35;;;;;;;;;;5086540;28;20553;-63
2020/12/15 14:12:09;;;;;;;16.73;10.40;;;;;;;;;;5086946;28;20028;-64
2020/12/15 14:14:37;;;;;;;17.05;10.50;;;;;;;;;;5074898;28;20089;-63
2020/12/15 14:17:04;;;;;;;19.05;9.88;;;;;;;;;;5067581;28;20036;-63